createdAt,value
2023-01-13T00:02:33.407Z,10.60
2023-01-13T00:05:35.693Z,10.60
2023-01-13T00:08:37.487Z,10.60
2023-01-13T00:11:39.363Z,10.60
2023-01-13T00:14:41.336Z,10.60
2023-01-13T00:17:43.160Z,10.60
2023-01-13T00:20:45.015Z,10.60
2023-01-13T00:23:47.584Z,10.60
2023-01-13T00:26:49.658Z,10.60
2023-01-13T00:29:51.613Z,10.60
2023-01-13T00:32:53.387Z,10.60
2023-01-13T00:36:00.265Z,10.50
2023-01-13T00:39:03.250Z,10.60
2023-01-13T00:42:23.474Z,10.50
2023-01-13T00:45:25.294Z,10.50
2023-01-13T00:48:29.015Z,10.40
2023-01-13T00:51:30.941Z,10.40
2023-01-13T00:54:32.811Z,10.40
2023-01-13T00:57:34.880Z,10.30
2023-01-13T01:00:37.028Z,10.20
2023-01-13T01:03:39.341Z,10.20
2023-01-13T01:06:41.885Z,10.10
2023-01-13T01:09:43.701Z,10.10
2023-01-13T01:12:45.507Z,10.10
2023-01-13T01:15:48.318Z,10.10
2023-01-13T01:18:52.158Z,10.10
2023-01-13T01:21:55.110Z,10.10
2023-01-13T01:24:56.970Z,10.00
2023-01-13T01:27:59.112Z,9.90
2023-01-13T01:31:14.719Z,9.90
2023-01-13T01:34:17.351Z,9.90
2023-01-13T01:37:19.129Z,9.90
2023-01-13T01:40:20.996Z,9.90
2023-01-13T01:44:01.969Z,9.80
2023-01-13T01:47:04.235Z,9.80
2023-01-13T01:50:06.387Z,9.70
2023-01-13T01:53:18.727Z,9.70
2023-01-13T01:56:21.388Z,9.80
2023-01-13T01:59:25.540Z,9.70
2023-01-13T02:02:29.001Z,9.70
2023-01-13T02:05:32.396Z,9.60
2023-01-13T02:08:34.769Z,9.60
2023-01-13T02:11:55.526Z,9.60
2023-01-13T02:15:01.565Z,9.60
2023-01-13T02:18:20.052Z,9.60
2023-01-13T02:22:02.638Z,9.60
2023-01-13T02:25:36.532Z,9.60
2023-01-13T02:29:15.510Z,9.50
2023-01-13T02:32:54.090Z,9.50
2023-01-13T02:36:29.188Z,9.50
2023-01-13T02:39:41.763Z,9.40
2023-01-13T02:43:15.157Z,9.40
2023-01-13T02:46:25.398Z,9.40
2023-01-13T02:49:44.996Z,9.40
2023-01-13T02:52:58.466Z,9.40
2023-01-13T02:56:03.380Z,9.40
2023-01-13T02:59:06.897Z,9.40
2023-01-13T03:02:12.829Z,9.30
2023-01-13T03:05:17.042Z,9.40
2023-01-13T03:09:06.289Z,9.40
2023-01-13T03:12:40.039Z,9.30
2023-01-13T03:15:56.916Z,9.30
2023-01-13T03:19:16.168Z,9.30
2023-01-13T03:22:24.208Z,9.30
2023-01-13T03:25:31.147Z,9.20
2023-01-13T03:28:41.368Z,9.30
2023-01-13T03:32:01.593Z,9.20
2023-01-13T03:35:33.862Z,9.10
2023-01-13T03:38:45.972Z,9.10
2023-01-13T03:42:00.044Z,9.10
2023-01-13T03:45:01.887Z,9.10
2023-01-13T03:48:12.992Z,9.10
2023-01-13T03:51:19.609Z,9.10
2023-01-13T03:54:25.775Z,9.10
2023-01-13T03:57:32.679Z,9.10
2023-01-13T04:00:41.135Z,9.10
2023-01-13T04:04:05.564Z,9.00
2023-01-13T04:07:35.332Z,9.00
2023-01-13T04:11:03.595Z,9.00
2023-01-13T04:14:08.450Z,9.00
2023-01-13T04:17:10.728Z,9.00
2023-01-13T04:20:13.418Z,9.00
2023-01-13T04:23:16.137Z,9.00
2023-01-13T04:26:19.774Z,9.00
2023-01-13T04:29:21.571Z,9.00
2023-01-13T04:32:23.676Z,9.00
2023-01-13T04:35:25.785Z,9.00
2023-01-13T04:38:27.739Z,9.10
2023-01-13T04:41:50.028Z,9.00
2023-01-13T04:44:52.005Z,9.00
2023-01-13T04:47:54.086Z,9.00
2023-01-13T04:50:55.931Z,9.10
2023-01-13T04:53:57.848Z,9.10
2023-01-13T04:56:59.847Z,9.20
2023-01-13T05:00:02.194Z,9.20
2023-01-13T05:03:04.864Z,9.20
2023-01-13T05:06:06.951Z,9.20
2023-01-13T05:09:09.173Z,9.10
2023-01-13T05:12:30.055Z,9.20
2023-01-13T05:16:01.273Z,9.20
2023-01-13T05:19:03.167Z,9.20
2023-01-13T05:22:25.285Z,9.20
2023-01-13T05:25:28.207Z,9.20
2023-01-13T05:28:34.134Z,9.20
2023-01-13T05:31:36.208Z,9.20
2023-01-13T05:34:38.119Z,9.20
2023-01-13T05:37:40.158Z,9.10
2023-01-13T05:41:00.911Z,9.10
2023-01-13T05:44:03.035Z,9.20
2023-01-13T05:47:05.423Z,9.10
2023-01-13T05:50:08.314Z,9.20
2023-01-13T05:53:10.284Z,9.10
2023-01-13T05:56:12.515Z,9.10
2023-01-13T05:59:14.311Z,9.10
2023-01-13T06:02:16.307Z,9.10
2023-01-13T06:05:18.121Z,9.10
2023-01-13T06:08:20.020Z,9.00
2023-01-13T06:11:21.855Z,8.90
2023-01-13T06:14:23.896Z,8.90
2023-01-13T06:17:25.740Z,8.80
2023-01-13T06:20:27.526Z,8.80
2023-01-13T06:23:29.624Z,8.70
2023-01-13T06:26:39.348Z,8.70
2023-01-13T06:29:41.763Z,8.60
2023-01-13T06:32:49.088Z,8.60
2023-01-13T06:35:56.184Z,8.60
2023-01-13T06:39:01.566Z,8.60
2023-01-13T06:42:23.106Z,8.50
2023-01-13T06:45:27.115Z,8.50
2023-01-13T06:48:34.171Z,8.50
2023-01-13T06:51:35.985Z,8.50
2023-01-13T06:54:38.055Z,8.50
2023-01-13T06:57:57.222Z,8.50
2023-01-13T07:01:02.385Z,8.50
2023-01-13T07:04:04.498Z,8.40
2023-01-13T07:07:07.837Z,8.40
2023-01-13T07:10:11.408Z,8.50
2023-01-13T07:13:31.789Z,8.50
2023-01-13T07:16:33.924Z,8.50
2023-01-13T07:19:35.971Z,8.40
2023-01-13T07:22:38.023Z,8.50
2023-01-13T07:25:39.846Z,8.40
2023-01-13T07:28:42.397Z,8.40
2023-01-13T07:31:44.803Z,8.40
2023-01-13T07:34:46.797Z,8.40
2023-01-13T07:37:49.231Z,8.40
2023-01-13T07:40:51.298Z,8.40
2023-01-13T07:43:53.153Z,8.30
2023-01-13T07:46:55.563Z,8.30
2023-01-13T07:49:57.465Z,8.40
2023-01-13T07:52:59.554Z,8.40
2023-01-13T07:56:02.845Z,8.40
2023-01-13T07:59:04.839Z,8.40
2023-01-13T08:02:07.141Z,8.40
2023-01-13T08:05:09.623Z,8.40
2023-01-13T08:08:11.885Z,8.50
2023-01-13T08:11:14.100Z,8.50
2023-01-13T08:14:16.045Z,8.50
2023-01-13T08:17:20.382Z,8.50
2023-01-13T08:20:22.569Z,8.50
2023-01-13T08:23:24.598Z,8.50
2023-01-13T08:26:27.354Z,8.50
2023-01-13T08:29:29.434Z,8.50
2023-01-13T08:32:31.620Z,8.50
2023-01-13T08:35:33.933Z,8.60
2023-01-13T08:38:37.009Z,8.60
2023-01-13T08:41:58.573Z,8.60
2023-01-13T08:45:01.167Z,8.70
2023-01-13T08:48:03.998Z,8.70
2023-01-13T08:51:08.038Z,8.80
2023-01-13T08:54:11.023Z,8.80
2023-01-13T08:57:13.301Z,8.90
2023-01-13T09:00:17.223Z,8.90
2023-01-13T09:03:19.300Z,9.00
2023-01-13T09:06:21.241Z,9.00
2023-01-13T09:09:23.997Z,9.00
2023-01-13T09:12:44.491Z,9.00
2023-01-13T09:15:46.719Z,9.10
2023-01-13T09:18:48.738Z,9.10
2023-01-13T09:21:52.530Z,9.10
2023-01-13T09:24:55.531Z,9.10
2023-01-13T09:27:58.012Z,9.20
2023-01-13T09:31:02.827Z,9.20
2023-01-13T09:34:25.344Z,9.20
2023-01-13T09:37:39.448Z,9.30
2023-01-13T09:40:43.794Z,9.30
2023-01-13T09:43:57.718Z,9.30
2023-01-13T09:47:04.148Z,9.40
2023-01-13T09:50:22.047Z,9.40
2023-01-13T09:53:32.651Z,9.50
2023-01-13T09:56:34.481Z,9.60
2023-01-13T09:59:38.103Z,9.60
2023-01-13T10:02:58.849Z,9.70
2023-01-13T10:06:15.592Z,9.70
2023-01-13T10:09:34.229Z,9.80
2023-01-13T10:12:54.886Z,9.80
2023-01-13T10:16:12.940Z,10.00
2023-01-13T10:19:25.367Z,10.00
2023-01-13T10:22:52.972Z,10.10
2023-01-13T10:26:13.626Z,10.20
2023-01-13T10:29:27.483Z,10.20
2023-01-13T10:32:29.342Z,10.20
2023-01-13T10:35:56.896Z,10.20
2023-01-13T10:39:09.688Z,10.10
2023-01-13T10:42:17.745Z,10.10
2023-01-13T10:45:26.615Z,10.10
2023-01-13T10:51:53.724Z,10.00
2023-01-13T10:54:55.963Z,10.00
2023-01-13T10:57:58.039Z,10.00
2023-01-13T11:01:03.123Z,9.90
2023-01-13T11:04:30.743Z,9.90
2023-01-13T11:07:39.249Z,9.90
2023-01-13T11:10:47.092Z,9.80
2023-01-13T11:14:11.793Z,9.80
2023-01-13T11:17:32.690Z,9.80
2023-01-13T11:20:39.075Z,9.70
2023-01-13T11:23:49.053Z,9.70
2023-01-13T11:26:58.388Z,9.60
2023-01-13T11:30:03.811Z,9.60
2023-01-13T11:33:11.627Z,9.60
2023-01-13T11:36:17.749Z,9.60
2023-01-13T11:39:36.121Z,9.60
2023-01-13T11:42:49.111Z,9.60
2023-01-13T11:45:57.368Z,9.70
2023-01-13T11:49:01.279Z,9.70
2023-01-13T11:52:22.142Z,9.70
2023-01-13T11:55:40.063Z,9.70
2023-01-13T11:59:07.931Z,9.80
2023-01-13T12:02:28.471Z,9.80
2023-01-13T12:05:44.713Z,9.80
2023-01-13T12:09:13.940Z,9.90
2023-01-13T12:12:57.849Z,10.00
2023-01-13T12:16:09.298Z,10.00
2023-01-13T12:19:32.385Z,10.00
2023-01-13T12:22:36.843Z,10.00
2023-01-13T12:25:49.743Z,9.90
2023-01-13T12:29:21.584Z,9.90
2023-01-13T12:32:33.320Z,9.90
2023-01-13T12:35:51.493Z,9.90
2023-01-13T12:38:57.123Z,9.90
2023-01-13T12:42:29.641Z,9.80
2023-01-13T12:45:33.670Z,9.70
2023-01-13T12:49:04.867Z,9.70
2023-01-13T12:52:13.992Z,9.60
2023-01-13T12:55:35.698Z,9.60
2023-01-13T12:58:37.501Z,9.60
2023-01-13T13:01:39.578Z,9.50
2023-01-13T13:04:49.252Z,9.40
2023-01-13T13:08:25.816Z,9.40
2023-01-13T13:11:57.978Z,9.40
2023-01-13T13:15:03.848Z,9.40
2023-01-13T13:18:08.624Z,9.40
2023-01-13T13:21:10.955Z,9.40
2023-01-13T13:24:13.174Z,9.40
2023-01-13T13:27:28.730Z,9.40
2023-01-13T13:30:41.833Z,9.30
2023-01-13T13:34:22.676Z,9.40
2023-01-13T13:37:56.332Z,9.40
2023-01-13T13:41:17.491Z,9.40
2023-01-13T13:44:47.530Z,9.40
2023-01-13T13:47:51.637Z,9.40
2023-01-13T13:50:58.971Z,9.40
2023-01-13T13:54:02.743Z,9.50
2023-01-13T13:57:04.949Z,9.40
2023-01-13T14:00:15.725Z,9.40
2023-01-13T14:03:28.127Z,9.40
2023-01-13T14:06:32.757Z,9.40
2023-01-13T14:09:45.545Z,9.40
2023-01-13T14:12:47.558Z,9.40
2023-01-13T14:16:01.955Z,9.40
2023-01-13T14:19:03.995Z,9.40
2023-01-13T14:22:06.171Z,9.40
2023-01-13T14:25:26.652Z,9.40
2023-01-13T14:28:36.737Z,9.40
2023-01-13T14:31:39.823Z,9.40
2023-01-13T14:34:41.661Z,9.40
2023-01-13T14:37:46.268Z,9.40
2023-01-13T14:40:48.258Z,9.40
2023-01-13T14:43:52.036Z,9.30
2023-01-13T14:46:57.172Z,9.40
2023-01-13T14:50:11.026Z,9.30
2023-01-13T14:53:39.779Z,9.40
2023-01-13T14:56:55.125Z,9.40
2023-01-13T15:00:15.429Z,9.40
2023-01-13T15:03:20.164Z,9.40
2023-01-13T15:06:26.728Z,9.50
2023-01-13T15:09:41.304Z,9.50
2023-01-13T15:12:43.798Z,9.50
2023-01-13T15:15:52.055Z,9.50
2023-01-13T15:18:55.722Z,9.40
2023-01-13T15:21:57.661Z,9.40
2023-01-13T15:24:59.786Z,9.40
2023-01-13T15:28:03.836Z,9.40
2023-01-13T15:31:05.734Z,9.40
2023-01-13T15:34:07.649Z,9.40
2023-01-13T15:37:09.965Z,9.40
2023-01-13T15:40:15.508Z,9.40
2023-01-13T15:43:39.406Z,9.40
2023-01-13T15:46:41.911Z,9.40
2023-01-13T15:49:45.134Z,9.40
2023-01-13T15:52:47.185Z,9.30
2023-01-13T15:55:56.719Z,9.40
2023-01-13T15:58:58.752Z,9.40
2023-01-13T16:02:00.620Z,9.40
2023-01-13T16:05:02.718Z,9.40
2023-01-13T16:08:04.996Z,9.50
2023-01-13T16:11:07.336Z,9.40
2023-01-13T16:14:09.345Z,9.40
2023-01-13T16:17:19.696Z,9.50
2023-01-13T16:20:21.705Z,9.40
2023-01-13T16:23:23.844Z,9.40
2023-01-13T16:26:29.244Z,9.40
2023-01-13T16:29:33.670Z,9.40
2023-01-13T16:32:36.027Z,9.50
2023-01-13T16:35:43.845Z,9.40
2023-01-13T16:38:59.865Z,9.40
2023-01-13T16:42:01.681Z,9.40
2023-01-13T16:45:08.431Z,9.40
2023-01-13T16:48:19.370Z,9.40
2023-01-13T16:51:22.335Z,9.50
2023-01-13T16:54:24.511Z,9.50
2023-01-13T16:57:26.655Z,9.50
2023-01-13T17:00:28.597Z,9.40
2023-01-13T17:03:34.216Z,9.40
2023-01-13T17:06:39.941Z,9.50
2023-01-13T17:09:49.905Z,9.40
2023-01-13T17:12:51.852Z,9.40
2023-01-13T17:15:53.874Z,9.50
2023-01-13T17:18:55.941Z,9.50
2023-01-13T17:21:58.106Z,9.40
2023-01-13T17:25:00.075Z,9.50
2023-01-13T17:28:02.198Z,9.40
2023-01-13T17:31:04.181Z,9.40
2023-01-13T17:34:06.329Z,9.40
2023-01-13T17:37:09.483Z,9.40
2023-01-13T17:40:12.010Z,9.40
2023-01-13T17:43:13.832Z,9.40
2023-01-13T17:46:18.648Z,9.40
2023-01-13T17:49:21.935Z,9.40
2023-01-13T17:52:23.867Z,9.40
2023-01-13T17:55:25.665Z,9.40
2023-01-13T17:58:27.502Z,9.40
2023-01-13T18:01:33.102Z,9.30
2023-01-13T18:04:35.384Z,9.30
2023-01-13T18:07:37.267Z,9.30
2023-01-13T18:10:40.013Z,9.40
2023-01-13T18:13:43.281Z,9.30
2023-01-13T18:16:45.238Z,9.30
2023-01-13T18:20:05.850Z,9.30
2023-01-13T18:23:37.684Z,9.30
2023-01-13T18:26:58.392Z,9.30
2023-01-13T18:30:01.689Z,9.20
2023-01-13T18:33:03.622Z,9.20
2023-01-13T18:36:08.967Z,9.20
2023-01-13T18:39:11.078Z,9.20
2023-01-13T18:42:31.409Z,9.20
2023-01-13T18:45:33.298Z,9.20
2023-01-13T18:48:35.420Z,9.10
2023-01-13T18:51:37.763Z,9.00
2023-01-13T18:54:39.791Z,9.00
2023-01-13T18:57:41.626Z,9.00
2023-01-13T19:00:43.677Z,9.00
2023-01-13T19:03:45.641Z,9.00
2023-01-13T19:06:51.581Z,8.90
2023-01-13T19:09:59.544Z,8.90
2023-01-13T19:13:02.016Z,8.90
2023-01-13T19:16:06.561Z,8.90
2023-01-13T19:19:08.505Z,8.80
2023-01-13T19:22:15.550Z,8.80
2023-01-13T19:25:17.432Z,8.90
2023-01-13T19:28:19.445Z,8.80
2023-01-13T19:31:21.503Z,8.80
2023-01-13T19:34:25.431Z,8.80
2023-01-13T19:37:31.555Z,8.80
2023-01-13T19:40:33.461Z,8.80
2023-01-13T19:43:53.814Z,8.80
2023-01-13T19:46:56.223Z,8.80
2023-01-13T19:49:58.149Z,8.90
2023-01-13T19:53:00.053Z,8.90
2023-01-13T19:56:02.008Z,8.90
2023-01-13T19:59:04.296Z,8.90
2023-01-13T20:02:11.861Z,8.90
2023-01-13T20:05:18.134Z,9.00
2023-01-13T20:08:21.469Z,9.00
2023-01-13T20:11:25.277Z,9.00
2023-01-13T20:14:27.316Z,9.00
2023-01-13T20:17:30.740Z,9.00
2023-01-13T20:20:32.884Z,8.90
2023-01-13T20:23:34.769Z,8.90
2023-01-13T20:26:38.531Z,8.90
2023-01-13T20:29:40.449Z,9.00
2023-01-13T20:32:43.057Z,9.00
2023-01-13T20:35:45.472Z,9.00
2023-01-13T20:38:47.272Z,8.90
2023-01-13T20:42:08.215Z,8.90
2023-01-13T20:45:11.376Z,9.00
2023-01-13T20:48:13.296Z,8.90
2023-01-13T20:51:15.196Z,8.90
2023-01-13T20:54:17.758Z,9.00
2023-01-13T20:57:19.672Z,9.00
2023-01-13T21:00:22.155Z,8.90
2023-01-13T21:03:24.004Z,8.90
2023-01-13T21:06:27.535Z,8.90
2023-01-13T21:09:30.939Z,8.90
2023-01-13T21:12:51.175Z,8.90
2023-01-13T21:15:55.367Z,8.90
2023-01-13T21:19:10.697Z,8.90
2023-01-13T21:22:12.510Z,8.80
2023-01-13T21:25:15.454Z,8.80
2023-01-13T21:28:18.232Z,8.70
2023-01-13T21:31:20.266Z,8.60
2023-01-13T21:34:22.342Z,8.70
2023-01-13T21:37:24.215Z,8.60
2023-01-13T21:40:26.242Z,8.60
2023-01-13T21:43:49.815Z,8.50
2023-01-13T21:47:10.647Z,8.50
2023-01-13T21:50:14.281Z,8.50
2023-01-13T21:53:16.273Z,8.50
2023-01-13T21:56:18.211Z,8.50
2023-01-13T21:59:20.120Z,8.50
2023-01-13T22:02:35.885Z,8.50
2023-01-13T22:05:38.366Z,8.40
2023-01-13T22:08:40.375Z,8.50
2023-01-13T22:11:43.135Z,8.40
2023-01-13T22:14:45.104Z,8.40
2023-01-13T22:17:51.211Z,8.40
2023-01-13T22:20:53.184Z,8.40
2023-01-13T22:23:55.150Z,8.40
2023-01-13T22:26:57.125Z,8.40
2023-01-13T22:29:59.094Z,8.30
2023-01-13T22:33:01.172Z,8.30
2023-01-13T22:36:03.331Z,8.30
2023-01-13T22:39:06.390Z,8.30
2023-01-13T22:42:10.152Z,8.30
2023-01-13T22:45:13.987Z,8.30
2023-01-13T22:48:15.998Z,8.30
2023-01-13T22:51:22.842Z,8.30
2023-01-13T22:54:25.003Z,8.30
2023-01-13T22:57:35.513Z,8.40
2023-01-13T23:00:40.680Z,8.40
2023-01-13T23:03:45.493Z,8.30
2023-01-13T23:06:47.322Z,8.30
2023-01-13T23:09:49.266Z,8.30
2023-01-13T23:12:52.624Z,8.20
2023-01-13T23:15:54.592Z,8.30
2023-01-13T23:18:57.021Z,8.30
2023-01-13T23:21:58.971Z,8.30
2023-01-13T23:25:00.939Z,8.20
2023-01-13T23:28:02.954Z,8.30
2023-01-13T23:31:14.063Z,8.30
2023-01-13T23:34:16.094Z,8.20
2023-01-13T23:37:18.072Z,8.20
2023-01-13T23:40:19.956Z,8.20
2023-01-13T23:43:22.470Z,8.30
2023-01-13T23:46:25.035Z,8.30
2023-01-13T23:49:27.012Z,8.30
2023-01-13T23:52:28.839Z,8.30
2023-01-13T23:55:30.873Z,8.30
2023-01-13T23:58:34.879Z,8.30
